Terminal Aerodrome Forecast
Issued by NWS Greer, SC

Home | Current Version | Previous Version | Text Only | Print | Product List | Glossary On
Versions: 1 2 3 4 5 6 7 8 9 10 11 12 13 14 15 16 17 18 19 20 21 22 23 24 25 26 27 28 29 30 31 32 33 34 35 36
000
FTUS42 KGSP 292336
TAFAVL
TAF
KAVL 292336Z 3000/3024 34011KT P6SM BKN070
     FM300600 35007KT P6SM SCT010
     FM300900 36005KT 4SM BR SCT005
      TEMPO 3010/3012 1SM BR BKN005
     FM301300 34008KT P6SM FEW020
     FM301700 20011KT P6SM FEW050=

USA.gov is the U.S. government's official web portal to all federal, state and local government web resources and services.